sensor_id;sensor_type;location;lat;lon;timestamp;P1;durP1;ratioP1;P2;durP2;ratioP2
43048;SDS011;28673;44.412;11.918;2023-06-22T00:00:57;14.77;;;7.28;;
43048;SDS011;28673;44.412;11.918;2023-06-22T00:03:24;19.23;;;6.47;;
43048;SDS011;28673;44.412;11.918;2023-06-22T00:05:50;10.32;;;6.78;;
43048;SDS011;28673;44.412;11.918;2023-06-22T00:08:17;8.73;;;6.43;;
43048;SDS011;28673;44.412;11.918;2023-06-22T00:10:44;7.85;;;5.68;;
43048;SDS011;28673;44.412;11.918;2023-06-22T00:13:11;14.85;;;6.75;;
43048;SDS011;28673;44.412;11.918;2023-06-22T00:15:38;9.90;;;6.38;;
43048;SDS011;28673;44.412;11.918;2023-06-22T00:18:06;13.82;;;6.88;;
43048;SDS011;28673;44.412;11.918;2023-06-22T00:20:32;9.48;;;7.53;;
43048;SDS011;28673;44.412;11.918;2023-06-22T00:22:59;12.63;;;7.05;;
43048;SDS011;28673;44.412;11.918;2023-06-22T00:25:25;9.40;;;5.65;;
43048;SDS011;28673;44.412;11.918;2023-06-22T00:27:51;10.88;;;6.97;;
43048;SDS011;28673;44.412;11.918;2023-06-22T00:30:17;9.55;;;6.50;;
43048;SDS011;28673;44.412;11.918;2023-06-22T00:32:44;14.05;;;6.57;;
43048;SDS011;28673;44.412;11.918;2023-06-22T00:35:12;9.07;;;6.32;;
43048;SDS011;28673;44.412;11.918;2023-06-22T00:37:38;15.68;;;7.25;;
43048;SDS011;28673;44.412;11.918;2023-06-22T00:40:07;11.90;;;6.85;;
43048;SDS011;28673;44.412;11.918;2023-06-22T00:42:40;8.23;;;6.00;;
43048;SDS011;28673;44.412;11.918;2023-06-22T00:45:07;10.67;;;7.57;;
43048;SDS011;28673;44.412;11.918;2023-06-22T00:47:36;9.40;;;6.60;;
43048;SDS011;28673;44.412;11.918;2023-06-22T00:50:04;10.97;;;6.40;;
43048;SDS011;28673;44.412;11.918;2023-06-22T00:52:32;8.88;;;6.43;;
43048;SDS011;28673;44.412;11.918;2023-06-22T00:55:00;17.95;;;6.40;;
43048;SDS011;28673;44.412;11.918;2023-06-22T00:57:27;8.90;;;7.05;;
43048;SDS011;28673;44.412;11.918;2023-06-22T00:59:54;10.32;;;7.47;;
43048;SDS011;28673;44.412;11.918;2023-06-22T01:02:21;12.13;;;6.97;;
43048;SDS011;28673;44.412;11.918;2023-06-22T01:04:47;10.93;;;7.35;;
43048;SDS011;28673;44.412;11.918;2023-06-22T01:07:26;9.32;;;7.15;;
43048;SDS011;28673;44.412;11.918;2023-06-22T01:13:41;10.95;;;6.68;;
43048;SDS011;28673;44.412;11.918;2023-06-22T01:16:25;15.50;;;6.85;;
43048;SDS011;28673;44.412;11.918;2023-06-22T01:18:55;10.45;;;6.97;;
43048;SDS011;28673;44.412;11.918;2023-06-22T01:21:23;13.52;;;7.63;;
43048;SDS011;28673;44.412;11.918;2023-06-22T01:24:02;15.35;;;7.70;;
43048;SDS011;28673;44.412;11.918;2023-06-22T01:29:34;11.60;;;7.50;;
43048;SDS011;28673;44.412;11.918;2023-06-22T01:32:03;9.15;;;7.35;;
43048;SDS011;28673;44.412;11.918;2023-06-22T01:34:31;9.77;;;6.82;;
43048;SDS011;28673;44.412;11.918;2023-06-22T01:36:59;12.63;;;6.68;;
43048;SDS011;28673;44.412;11.918;2023-06-22T01:39:28;10.48;;;7.07;;
43048;SDS011;28673;44.412;11.918;2023-06-22T01:41:55;10.30;;;6.80;;
43048;SDS011;28673;44.412;11.918;2023-06-22T01:44:22;7.70;;;6.32;;
43048;SDS011;28673;44.412;11.918;2023-06-22T01:46:50;13.68;;;6.55;;
43048;SDS011;28673;44.412;11.918;2023-06-22T01:49:17;16.65;;;7.47;;
43048;SDS011;28673;44.412;11.918;2023-06-22T01:51:44;10.20;;;6.82;;
43048;SDS011;28673;44.412;11.918;2023-06-22T01:54:10;14.77;;;6.28;;
43048;SDS011;28673;44.412;11.918;2023-06-22T01:56:35;11.10;;;6.60;;
43048;SDS011;28673;44.412;11.918;2023-06-22T02:01:54;11.38;;;6.78;;
43048;SDS011;28673;44.412;11.918;2023-06-22T02:04:27;12.15;;;6.50;;
43048;SDS011;28673;44.412;11.918;2023-06-22T02:06:59;13.27;;;7.78;;
43048;SDS011;28673;44.412;11.918;2023-06-22T02:09:26;9.95;;;7.20;;
43048;SDS011;28673;44.412;11.918;2023-06-22T02:11:55;17.55;;;7.68;;
43048;SDS011;28673;44.412;11.918;2023-06-22T02:14:22;12.07;;;7.05;;
43048;SDS011;28673;44.412;11.918;2023-06-22T02:16:50;11.65;;;6.65;;
43048;SDS011;28673;44.412;11.918;2023-06-22T02:19:17;10.45;;;6.45;;
43048;SDS011;28673;44.412;11.918;2023-06-22T02:21:47;10.68;;;6.68;;
43048;SDS011;28673;44.412;11.918;2023-06-22T02:24:13;15.32;;;7.28;;
43048;SDS011;28673;44.412;11.918;2023-06-22T02:26:39;9.00;;;6.90;;
43048;SDS011;28673;44.412;11.918;2023-06-22T02:29:07;10.00;;;6.40;;
43048;SDS011;28673;44.412;11.918;2023-06-22T02:31:33;12.98;;;7.03;;
43048;SDS011;28673;44.412;11.918;2023-06-22T02:33:59;14.35;;;7.05;;
43048;SDS011;28673;44.412;11.918;2023-06-22T02:36:25;14.02;;;6.38;;
43048;SDS011;28673;44.412;11.918;2023-06-22T02:38:55;11.97;;;6.93;;
43048;SDS011;28673;44.412;11.918;2023-06-22T02:41:26;11.15;;;6.97;;
43048;SDS011;28673;44.412;11.918;2023-06-22T02:43:55;10.73;;;7.38;;
43048;SDS011;28673;44.412;11.918;2023-06-22T02:46:23;12.63;;;6.55;;
43048;SDS011;28673;44.412;11.918;2023-06-22T02:48:49;14.48;;;7.55;;
43048;SDS011;28673;44.412;11.918;2023-06-22T02:51:15;17.90;;;6.80;;
43048;SDS011;28673;44.412;11.918;2023-06-22T02:56:08;12.15;;;6.22;;
43048;SDS011;28673;44.412;11.918;2023-06-22T02:58:36;9.05;;;7.10;;
43048;SDS011;28673;44.412;11.918;2023-06-22T03:01:07;13.65;;;6.47;;
43048;SDS011;28673;44.412;11.918;2023-06-22T03:03:36;9.30;;;6.90;;
43048;SDS011;28673;44.412;11.918;2023-06-22T03:06:02;13.15;;;7.07;;
43048;SDS011;28673;44.412;11.918;2023-06-22T03:08:28;7.72;;;6.00;;
43048;SDS011;28673;44.412;11.918;2023-06-22T03:10:55;9.85;;;6.32;;
43048;SDS011;28673;44.412;11.918;2023-06-22T03:13:21;11.88;;;6.45;;
43048;SDS011;28673;44.412;11.918;2023-06-22T03:15:47;8.63;;;6.40;;
43048;SDS011;28673;44.412;11.918;2023-06-22T03:18:13;9.80;;;6.95;;
43048;SDS011;28673;44.412;11.918;2023-06-22T03:20:41;14.20;;;5.70;;
43048;SDS011;28673;44.412;11.918;2023-06-22T03:23:07;9.27;;;6.65;;
43048;SDS011;28673;44.412;11.918;2023-06-22T03:25:34;10.07;;;6.45;;
43048;SDS011;28673;44.412;11.918;2023-06-22T03:28:01;11.73;;;6.35;;
43048;SDS011;28673;44.412;11.918;2023-06-22T03:30:27;9.32;;;6.10;;
43048;SDS011;28673;44.412;11.918;2023-06-22T03:32:53;9.77;;;7.13;;
43048;SDS011;28673;44.412;11.918;2023-06-22T03:35:19;10.70;;;6.30;;
43048;SDS011;28673;44.412;11.918;2023-06-22T03:37:46;8.80;;;5.65;;
43048;SDS011;28673;44.412;11.918;2023-06-22T03:40:11;9.70;;;6.63;;
43048;SDS011;28673;44.412;11.918;2023-06-22T03:42:39;14.75;;;6.90;;
43048;SDS011;28673;44.412;11.918;2023-06-22T03:45:05;12.55;;;6.45;;
43048;SDS011;28673;44.412;11.918;2023-06-22T03:47:31;9.43;;;7.10;;
43048;SDS011;28673;44.412;11.918;2023-06-22T03:49:58;11.50;;;6.65;;
43048;SDS011;28673;44.412;11.918;2023-06-22T03:52:24;7.28;;;5.75;;
43048;SDS011;28673;44.412;11.918;2023-06-22T03:54:50;7.60;;;6.38;;
43048;SDS011;28673;44.412;11.918;2023-06-22T03:57:16;12.43;;;6.13;;
43048;SDS011;28673;44.412;11.918;2023-06-22T03:59:42;9.63;;;7.35;;
43048;SDS011;28673;44.412;11.918;2023-06-22T04:02:08;11.55;;;7.10;;
43048;SDS011;28673;44.412;11.918;2023-06-22T04:04:34;13.63;;;8.38;;
43048;SDS011;28673;44.412;11.918;2023-06-22T04:07:00;10.77;;;7.07;;
43048;SDS011;28673;44.412;11.918;2023-06-22T04:09:26;12.63;;;6.82;;
43048;SDS011;28673;44.412;11.918;2023-06-22T04:11:52;9.75;;;7.20;;
43048;SDS011;28673;44.412;11.918;2023-06-22T04:14:18;11.50;;;8.45;;
43048;SDS011;28673;44.412;11.918;2023-06-22T04:16:44;9.07;;;7.72;;
43048;SDS011;28673;44.412;11.918;2023-06-22T04:19:09;11.02;;;6.93;;
43048;SDS011;28673;44.412;11.918;2023-06-22T04:21:41;14.57;;;7.20;;
43048;SDS011;28673;44.412;11.918;2023-06-22T04:24:10;10.43;;;7.28;;
43048;SDS011;28673;44.412;11.918;2023-06-22T04:26:36;12.20;;;7.65;;
43048;SDS011;28673;44.412;11.918;2023-06-22T04:29:03;8.55;;;6.32;;
43048;SDS011;28673;44.412;11.918;2023-06-22T04:31:33;15.70;;;8.23;;
43048;SDS011;28673;44.412;11.918;2023-06-22T04:34:02;19.02;;;7.70;;
43048;SDS011;28673;44.412;11.918;2023-06-22T04:36:33;14.70;;;8.25;;
43048;SDS011;28673;44.412;11.918;2023-06-22T04:39:09;9.80;;;7.32;;
43048;SDS011;28673;44.412;11.918;2023-06-22T04:41:36;8.77;;;7.07;;
43048;SDS011;28673;44.412;11.918;2023-06-22T04:44:09;13.55;;;7.80;;
43048;SDS011;28673;44.412;11.918;2023-06-22T04:46:36;12.35;;;7.15;;
43048;SDS011;28673;44.412;11.918;2023-06-22T04:49:06;11.82;;;7.20;;
43048;SDS011;28673;44.412;11.918;2023-06-22T04:51:36;13.43;;;7.68;;
43048;SDS011;28673;44.412;11.918;2023-06-22T04:54:05;10.02;;;7.72;;
43048;SDS011;28673;44.412;11.918;2023-06-22T04:56:31;11.43;;;8.32;;
43048;SDS011;28673;44.412;11.918;2023-06-22T04:58:58;13.35;;;7.95;;
43048;SDS011;28673;44.412;11.918;2023-06-22T05:01:24;18.00;;;8.25;;
43048;SDS011;28673;44.412;11.918;2023-06-22T05:03:50;15.25;;;7.93;;
43048;SDS011;28673;44.412;11.918;2023-06-22T05:06:23;11.85;;;7.80;;
43048;SDS011;28673;44.412;11.918;2023-06-22T05:08:53;12.82;;;8.45;;
43048;SDS011;28673;44.412;11.918;2023-06-22T05:11:25;11.52;;;7.88;;
43048;SDS011;28673;44.412;11.918;2023-06-22T05:13:52;10.60;;;6.97;;
43048;SDS011;28673;44.412;11.918;2023-06-22T05:16:19;8.95;;;6.85;;
43048;SDS011;28673;44.412;11.918;2023-06-22T05:18:54;13.00;;;7.15;;
43048;SDS011;28673;44.412;11.918;2023-06-22T05:21:25;10.35;;;7.18;;
43048;SDS011;28673;44.412;11.918;2023-06-22T05:23:55;15.00;;;6.82;;
43048;SDS011;28673;44.412;11.918;2023-06-22T05:26:26;9.77;;;7.05;;
43048;SDS011;28673;44.412;11.918;2023-06-22T05:28:52;18.52;;;7.13;;
43048;SDS011;28673;44.412;11.918;2023-06-22T05:31:18;9.32;;;6.45;;
43048;SDS011;28673;44.412;11.918;2023-06-22T05:33:48;10.60;;;6.97;;
43048;SDS011;28673;44.412;11.918;2023-06-22T05:36:14;10.93;;;6.93;;
43048;SDS011;28673;44.412;11.918;2023-06-22T05:38:41;16.73;;;6.90;;
43048;SDS011;28673;44.412;11.918;2023-06-22T05:41:07;12.20;;;7.32;;
43048;SDS011;28673;44.412;11.918;2023-06-22T05:43:33;10.45;;;7.05;;
43048;SDS011;28673;44.412;11.918;2023-06-22T05:46:00;15.13;;;6.68;;
43048;SDS011;28673;44.412;11.918;2023-06-22T05:48:27;9.20;;;6.90;;
43048;SDS011;28673;44.412;11.918;2023-06-22T05:50:53;11.02;;;7.45;;
43048;SDS011;28673;44.412;11.918;2023-06-22T05:53:19;16.55;;;6.45;;
43048;SDS011;28673;44.412;11.918;2023-06-22T05:55:45;14.63;;;7.50;;
43048;SDS011;28673;44.412;11.918;2023-06-22T05:58:11;19.23;;;7.55;;
43048;SDS011;28673;44.412;11.918;2023-06-22T06:00:39;9.70;;;7.03;;
43048;SDS011;28673;44.412;11.918;2023-06-22T06:03:06;14.88;;;9.07;;
43048;SDS011;28673;44.412;11.918;2023-06-22T06:05:33;15.02;;;7.45;;
43048;SDS011;28673;44.412;11.918;2023-06-22T06:08:00;16.77;;;8.10;;
43048;SDS011;28673;44.412;11.918;2023-06-22T06:10:28;12.45;;;8.07;;
43048;SDS011;28673;44.412;11.918;2023-06-22T06:12:55;14.90;;;9.00;;
43048;SDS011;28673;44.412;11.918;2023-06-22T06:15:21;14.43;;;8.80;;
43048;SDS011;28673;44.412;11.918;2023-06-22T06:17:51;13.60;;;9.18;;
43048;SDS011;28673;44.412;11.918;2023-06-22T06:20:19;15.23;;;8.13;;
43048;SDS011;28673;44.412;11.918;2023-06-22T06:22:47;14.98;;;8.27;;
43048;SDS011;28673;44.412;11.918;2023-06-22T06:25:13;14.55;;;9.13;;
43048;SDS011;28673;44.412;11.918;2023-06-22T06:27:44;13.10;;;7.07;;
43048;SDS011;28673;44.412;11.918;2023-06-22T06:30:11;12.30;;;8.88;;
43048;SDS011;28673;44.412;11.918;2023-06-22T06:32:38;22.33;;;10.23;;
43048;SDS011;28673;44.412;11.918;2023-06-22T06:35:08;24.30;;;10.40;;
43048;SDS011;28673;44.412;11.918;2023-06-22T06:40:03;14.20;;;8.48;;
43048;SDS011;28673;44.412;11.918;2023-06-22T06:42:32;21.20;;;9.30;;
43048;SDS011;28673;44.412;11.918;2023-06-22T06:44:57;17.55;;;8.70;;
43048;SDS011;28673;44.412;11.918;2023-06-22T06:47:23;17.48;;;9.30;;
43048;SDS011;28673;44.412;11.918;2023-06-22T06:49:49;16.80;;;9.32;;
43048;SDS011;28673;44.412;11.918;2023-06-22T06:52:15;23.73;;;9.52;;
43048;SDS011;28673;44.412;11.918;2023-06-22T06:54:41;16.40;;;7.25;;
43048;SDS011;28673;44.412;11.918;2023-06-22T06:57:07;17.02;;;8.25;;
43048;SDS011;28673;44.412;11.918;2023-06-22T06:59:35;18.23;;;8.63;;
43048;SDS011;28673;44.412;11.918;2023-06-22T07:02:01;14.48;;;7.95;;
43048;SDS011;28673;44.412;11.918;2023-06-22T07:04:27;18.52;;;8.73;;
43048;SDS011;28673;44.412;11.918;2023-06-22T07:06:53;17.60;;;7.90;;
43048;SDS011;28673;44.412;11.918;2023-06-22T07:09:19;15.35;;;7.68;;
43048;SDS011;28673;44.412;11.918;2023-06-22T07:11:45;17.98;;;7.53;;
43048;SDS011;28673;44.412;11.918;2023-06-22T07:14:11;19.20;;;7.00;;
43048;SDS011;28673;44.412;11.918;2023-06-22T07:16:37;14.25;;;6.38;;
43048;SDS011;28673;44.412;11.918;2023-06-22T07:19:03;13.80;;;7.22;;
43048;SDS011;28673;44.412;11.918;2023-06-22T07:21:29;12.45;;;6.60;;
43048;SDS011;28673;44.412;11.918;2023-06-22T07:23:55;12.18;;;6.88;;
43048;SDS011;28673;44.412;11.918;2023-06-22T07:26:21;10.88;;;6.65;;
43048;SDS011;28673;44.412;11.918;2023-06-22T07:28:47;13.23;;;7.35;;
43048;SDS011;28673;44.412;11.918;2023-06-22T07:31:13;12.07;;;5.90;;
43048;SDS011;28673;44.412;11.918;2023-06-22T07:33:39;15.38;;;8.02;;
43048;SDS011;28673;44.412;11.918;2023-06-22T07:36:05;10.35;;;5.85;;
43048;SDS011;28673;44.412;11.918;2023-06-22T07:38:33;13.63;;;7.00;;
43048;SDS011;28673;44.412;11.918;2023-06-22T07:41:00;9.98;;;7.43;;
43048;SDS011;28673;44.412;11.918;2023-06-22T07:43:26;14.18;;;6.80;;
43048;SDS011;28673;44.412;11.918;2023-06-22T07:45:52;12.15;;;8.23;;
43048;SDS011;28673;44.412;11.918;2023-06-22T07:48:22;16.45;;;8.10;;
43048;SDS011;28673;44.412;11.918;2023-06-22T07:50:48;11.88;;;6.80;;
43048;SDS011;28673;44.412;11.918;2023-06-22T07:53:15;13.13;;;7.97;;
43048;SDS011;28673;44.412;11.918;2023-06-22T07:55:40;13.48;;;8.13;;
43048;SDS011;28673;44.412;11.918;2023-06-22T07:58:06;15.65;;;6.88;;
43048;SDS011;28673;44.412;11.918;2023-06-22T08:00:33;17.80;;;9.90;;
43048;SDS011;28673;44.412;11.918;2023-06-22T08:02:59;13.07;;;10.10;;
43048;SDS011;28673;44.412;11.918;2023-06-22T08:05:25;15.48;;;6.70;;
43048;SDS011;28673;44.412;11.918;2023-06-22T08:07:51;13.73;;;8.43;;
43048;SDS011;28673;44.412;11.918;2023-06-22T08:10:18;15.88;;;8.25;;
43048;SDS011;28673;44.412;11.918;2023-06-22T08:12:44;13.70;;;6.90;;
43048;SDS011;28673;44.412;11.918;2023-06-22T08:15:10;14.95;;;6.78;;
43048;SDS011;28673;44.412;11.918;2023-06-22T08:17:36;11.90;;;6.32;;
43048;SDS011;28673;44.412;11.918;2023-06-22T08:20:03;9.80;;;6.20;;
43048;SDS011;28673;44.412;11.918;2023-06-22T08:22:39;13.25;;;6.63;;
43048;SDS011;28673;44.412;11.918;2023-06-22T08:25:06;8.63;;;6.95;;
43048;SDS011;28673;44.412;11.918;2023-06-22T08:27:33;9.48;;;6.07;;
43048;SDS011;28673;44.412;11.918;2023-06-22T08:29:59;11.95;;;7.25;;
43048;SDS011;28673;44.412;11.918;2023-06-22T08:32:28;10.45;;;7.20;;
43048;SDS011;28673;44.412;11.918;2023-06-22T08:34:55;10.88;;;6.45;;
43048;SDS011;28673;44.412;11.918;2023-06-22T08:37:22;17.50;;;7.53;;
43048;SDS011;28673;44.412;11.918;2023-06-22T08:39:59;11.73;;;6.18;;
43048;SDS011;28673;44.412;11.918;2023-06-22T08:42:30;17.30;;;6.30;;
43048;SDS011;28673;44.412;11.918;2023-06-22T08:44:56;13.00;;;6.75;;
43048;SDS011;28673;44.412;11.918;2023-06-22T08:47:23;14.18;;;6.45;;
43048;SDS011;28673;44.412;11.918;2023-06-22T08:49:49;12.77;;;6.55;;
43048;SDS011;28673;44.412;11.918;2023-06-22T08:52:16;10.85;;;6.38;;
43048;SDS011;28673;44.412;11.918;2023-06-22T08:54:43;15.48;;;6.13;;
43048;SDS011;28673;44.412;11.918;2023-06-22T08:57:08;13.63;;;7.05;;
43048;SDS011;28673;44.412;11.918;2023-06-22T08:59:35;10.88;;;6.53;;
43048;SDS011;28673;44.412;11.918;2023-06-22T09:02:01;7.00;;;5.72;;
43048;SDS011;28673;44.412;11.918;2023-06-22T09:04:27;9.73;;;6.00;;
43048;SDS011;28673;44.412;11.918;2023-06-22T09:06:53;7.10;;;5.65;;
43048;SDS011;28673;44.412;11.918;2023-06-22T09:09:20;9.82;;;6.07;;
43048;SDS011;28673;44.412;11.918;2023-06-22T09:11:46;18.58;;;5.93;;
43048;SDS011;28673;44.412;11.918;2023-06-22T09:14:12;13.32;;;6.15;;
43048;SDS011;28673;44.412;11.918;2023-06-22T09:16:38;9.05;;;6.05;;
43048;SDS011;28673;44.412;11.918;2023-06-22T09:19:04;9.23;;;6.55;;
43048;SDS011;28673;44.412;11.918;2023-06-22T09:21:30;16.90;;;6.28;;
43048;SDS011;28673;44.412;11.918;2023-06-22T09:23:56;15.68;;;7.35;;
43048;SDS011;28673;44.412;11.918;2023-06-22T09:26:22;10.02;;;5.90;;
43048;SDS011;28673;44.412;11.918;2023-06-22T09:28:49;16.08;;;6.60;;
43048;SDS011;28673;44.412;11.918;2023-06-22T09:31:15;16.92;;;6.78;;
43048;SDS011;28673;44.412;11.918;2023-06-22T09:33:42;9.93;;;5.32;;
43048;SDS011;28673;44.412;11.918;2023-06-22T09:36:08;10.55;;;6.10;;
43048;SDS011;28673;44.412;11.918;2023-06-22T09:38:34;8.13;;;6.00;;
43048;SDS011;28673;44.412;11.918;2023-06-22T09:41:01;9.10;;;6.47;;
43048;SDS011;28673;44.412;11.918;2023-06-22T09:43:27;7.25;;;5.32;;
43048;SDS011;28673;44.412;11.918;2023-06-22T09:45:53;11.25;;;5.25;;
43048;SDS011;28673;44.412;11.918;2023-06-22T09:48:19;5.53;;;4.38;;
43048;SDS011;28673;44.412;11.918;2023-06-22T09:50:45;7.22;;;4.88;;
43048;SDS011;28673;44.412;11.918;2023-06-22T09:53:11;9.07;;;4.47;;
43048;SDS011;28673;44.412;11.918;2023-06-22T09:55:36;10.55;;;6.25;;
43048;SDS011;28673;44.412;11.918;2023-06-22T09:58:02;12.45;;;4.88;;
43048;SDS011;28673;44.412;11.918;2023-06-22T10:00:28;9.02;;;5.35;;
43048;SDS011;28673;44.412;11.918;2023-06-22T10:02:54;9.18;;;4.75;;
43048;SDS011;28673;44.412;11.918;2023-06-22T10:05:21;9.15;;;5.75;;
43048;SDS011;28673;44.412;11.918;2023-06-22T10:07:47;9.63;;;4.85;;
43048;SDS011;28673;44.412;11.918;2023-06-22T10:10:13;16.23;;;5.13;;
43048;SDS011;28673;44.412;11.918;2023-06-22T10:12:47;8.35;;;4.90;;
43048;SDS011;28673;44.412;11.918;2023-06-22T10:15:19;7.68;;;5.57;;
43048;SDS011;28673;44.412;11.918;2023-06-22T10:17:46;6.78;;;4.70;;
43048;SDS011;28673;44.412;11.918;2023-06-22T10:20:12;13.73;;;4.97;;
43048;SDS011;28673;44.412;11.918;2023-06-22T10:22:39;7.30;;;5.20;;
43048;SDS011;28673;44.412;11.918;2023-06-22T10:25:07;6.93;;;4.55;;
43048;SDS011;28673;44.412;11.918;2023-06-22T10:27:34;10.10;;;4.60;;
43048;SDS011;28673;44.412;11.918;2023-06-22T10:30:00;8.77;;;4.70;;
43048;SDS011;28673;44.412;11.918;2023-06-22T10:32:26;10.50;;;4.68;;
43048;SDS011;28673;44.412;11.918;2023-06-22T10:34:53;5.82;;;4.65;;
43048;SDS011;28673;44.412;11.918;2023-06-22T10:37:20;5.82;;;4.35;;
43048;SDS011;28673;44.412;11.918;2023-06-22T10:39:45;7.45;;;3.63;;
43048;SDS011;28673;44.412;11.918;2023-06-22T10:42:12;9.32;;;5.28;;
43048;SDS011;28673;44.412;11.918;2023-06-22T10:44:38;6.43;;;4.25;;
43048;SDS011;28673;44.412;11.918;2023-06-22T10:47:06;8.30;;;4.25;;
43048;SDS011;28673;44.412;11.918;2023-06-22T10:49:32;7.20;;;4.20;;
43048;SDS011;28673;44.412;11.918;2023-06-22T10:51:58;16.15;;;4.03;;
43048;SDS011;28673;44.412;11.918;2023-06-22T10:54:24;14.10;;;4.53;;
43048;SDS011;28673;44.412;11.918;2023-06-22T10:56:49;9.98;;;4.93;;
43048;SDS011;28673;44.412;11.918;2023-06-22T10:59:15;11.13;;;4.63;;
43048;SDS011;28673;44.412;11.918;2023-06-22T11:01:41;9.38;;;4.60;;
43048;SDS011;28673;44.412;11.918;2023-06-22T11:04:07;6.40;;;4.35;;
43048;SDS011;28673;44.412;11.918;2023-06-22T11:06:33;9.93;;;4.97;;
43048;SDS011;28673;44.412;11.918;2023-06-22T11:08:59;11.48;;;4.85;;
43048;SDS011;28673;44.412;11.918;2023-06-22T11:11:25;8.38;;;5.20;;
43048;SDS011;28673;44.412;11.918;2023-06-22T11:13:52;7.70;;;4.90;;
43048;SDS011;28673;44.412;11.918;2023-06-22T11:16:18;9.57;;;4.75;;
43048;SDS011;28673;44.412;11.918;2023-06-22T11:18:44;4.75;;;3.88;;
43048;SDS011;28673;44.412;11.918;2023-06-22T11:21:10;12.15;;;4.68;;
43048;SDS011;28673;44.412;11.918;2023-06-22T11:23:36;5.65;;;4.32;;
43048;SDS011;28673;44.412;11.918;2023-06-22T11:26:02;5.47;;;3.33;;
43048;SDS011;28673;44.412;11.918;2023-06-22T11:28:28;9.30;;;4.38;;
43048;SDS011;28673;44.412;11.918;2023-06-22T11:30:53;6.45;;;4.00;;
43048;SDS011;28673;44.412;11.918;2023-06-22T11:33:19;10.30;;;4.70;;
43048;SDS011;28673;44.412;11.918;2023-06-22T11:35:45;12.60;;;4.18;;
43048;SDS011;28673;44.412;11.918;2023-06-22T11:38:11;10.10;;;4.13;;
43048;SDS011;28673;44.412;11.918;2023-06-22T11:40:37;8.82;;;4.32;;
43048;SDS011;28673;44.412;11.918;2023-06-22T11:43:03;16.08;;;5.15;;
43048;SDS011;28673;44.412;11.918;2023-06-22T11:45:29;7.78;;;4.10;;
43048;SDS011;28673;44.412;11.918;2023-06-22T11:47:55;7.80;;;4.13;;
43048;SDS011;28673;44.412;11.918;2023-06-22T11:50:21;5.38;;;4.32;;
43048;SDS011;28673;44.412;11.918;2023-06-22T11:52:47;6.22;;;3.90;;
43048;SDS011;28673;44.412;11.918;2023-06-22T11:55:13;5.53;;;3.80;;
43048;SDS011;28673;44.412;11.918;2023-06-22T11:57:54;6.38;;;3.78;;
43048;SDS011;28673;44.412;11.918;2023-06-22T12:00:21;12.30;;;3.75;;
43048;SDS011;28673;44.412;11.918;2023-06-22T12:02:49;6.40;;;4.20;;
43048;SDS011;28673;44.412;11.918;2023-06-22T12:05:17;9.93;;;4.13;;
43048;SDS011;28673;44.412;11.918;2023-06-22T12:07:44;7.95;;;4.22;;
43048;SDS011;28673;44.412;11.918;2023-06-22T12:10:10;10.23;;;4.07;;
43048;SDS011;28673;44.412;11.918;2023-06-22T12:12:36;12.48;;;3.67;;
43048;SDS011;28673;44.412;11.918;2023-06-22T12:15:02;13.27;;;4.00;;
43048;SDS011;28673;44.412;11.918;2023-06-22T12:17:29;5.57;;;3.42;;
43048;SDS011;28673;44.412;11.918;2023-06-22T12:19:55;7.45;;;4.28;;
43048;SDS011;28673;44.412;11.918;2023-06-22T12:22:21;9.52;;;3.83;;
43048;SDS011;28673;44.412;11.918;2023-06-22T12:24:47;5.40;;;3.00;;
43048;SDS011;28673;44.412;11.918;2023-06-22T12:27:14;3.47;;;3.17;;
43048;SDS011;28673;44.412;11.918;2023-06-22T12:29:44;7.43;;;3.38;;
43048;SDS011;28673;44.412;11.918;2023-06-22T12:32:11;6.30;;;3.40;;
43048;SDS011;28673;44.412;11.918;2023-06-22T12:34:41;7.13;;;3.40;;
43048;SDS011;28673;44.412;11.918;2023-06-22T12:37:08;7.65;;;4.10;;
43048;SDS011;28673;44.412;11.918;2023-06-22T12:39:34;10.60;;;4.15;;
43048;SDS011;28673;44.412;11.918;2023-06-22T12:42:04;5.75;;;3.08;;
43048;SDS011;28673;44.412;11.918;2023-06-22T12:44:30;5.07;;;3.08;;
43048;SDS011;28673;44.412;11.918;2023-06-22T12:46:56;5.28;;;2.90;;
43048;SDS011;28673;44.412;11.918;2023-06-22T12:49:22;8.90;;;2.83;;
43048;SDS011;28673;44.412;11.918;2023-06-22T12:51:48;8.68;;;3.70;;
43048;SDS011;28673;44.412;11.918;2023-06-22T12:54:14;9.40;;;3.50;;
43048;SDS011;28673;44.412;11.918;2023-06-22T12:56:40;5.75;;;3.60;;
43048;SDS011;28673;44.412;11.918;2023-06-22T12:59:07;5.30;;;3.35;;
43048;SDS011;28673;44.412;11.918;2023-06-22T13:01:33;5.93;;;4.00;;
43048;SDS011;28673;44.412;11.918;2023-06-22T13:03:59;5.55;;;3.70;;
43048;SDS011;28673;44.412;11.918;2023-06-22T13:06:25;5.88;;;3.83;;
43048;SDS011;28673;44.412;11.918;2023-06-22T13:08:51;14.07;;;4.47;;
43048;SDS011;28673;44.412;11.918;2023-06-22T13:11:17;9.13;;;5.18;;
43048;SDS011;28673;44.412;11.918;2023-06-22T13:13:44;13.85;;;4.68;;
43048;SDS011;28673;44.412;11.918;2023-06-22T13:16:11;8.70;;;4.93;;
43048;SDS011;28673;44.412;11.918;2023-06-22T13:18:37;8.40;;;5.10;;
43048;SDS011;28673;44.412;11.918;2023-06-22T13:21:04;8.88;;;4.88;;
43048;SDS011;28673;44.412;11.918;2023-06-22T13:23:30;11.95;;;4.85;;
43048;SDS011;28673;44.412;11.918;2023-06-22T13:25:57;13.23;;;5.88;;
43048;SDS011;28673;44.412;11.918;2023-06-22T13:28:23;22.52;;;6.22;;
43048;SDS011;28673;44.412;11.918;2023-06-22T13:30:49;13.73;;;5.72;;
43048;SDS011;28673;44.412;11.918;2023-06-22T13:33:15;11.68;;;5.97;;
43048;SDS011;28673;44.412;11.918;2023-06-22T13:35:41;10.75;;;6.05;;
43048;SDS011;28673;44.412;11.918;2023-06-22T13:38:12;15.35;;;5.47;;
43048;SDS011;28673;44.412;11.918;2023-06-22T13:40:38;15.05;;;5.00;;
43048;SDS011;28673;44.412;11.918;2023-06-22T13:43:04;11.27;;;5.90;;
43048;SDS011;28673;44.412;11.918;2023-06-22T13:45:30;11.45;;;5.53;;
43048;SDS011;28673;44.412;11.918;2023-06-22T13:47:57;17.42;;;6.15;;
43048;SDS011;28673;44.412;11.918;2023-06-22T14:18:57;9.88;;;5.60;;
43048;SDS011;28673;44.412;11.918;2023-06-22T14:21:23;12.35;;;4.72;;
43048;SDS011;28673;44.412;11.918;2023-06-22T14:23:49;12.63;;;5.28;;
43048;SDS011;28673;44.412;11.918;2023-06-22T14:26:15;7.55;;;6.10;;
43048;SDS011;28673;44.412;11.918;2023-06-22T14:28:47;8.02;;;5.18;;
43048;SDS011;28673;44.412;11.918;2023-06-22T14:31:15;7.47;;;6.15;;
43048;SDS011;28673;44.412;11.918;2023-06-22T14:33:46;7.20;;;5.82;;
43048;SDS011;28673;44.412;11.918;2023-06-22T14:36:13;10.75;;;6.85;;
43048;SDS011;28673;44.412;11.918;2023-06-22T14:38:39;7.57;;;4.53;;
43048;SDS011;28673;44.412;11.918;2023-06-22T14:41:05;11.05;;;4.88;;
43048;SDS011;28673;44.412;11.918;2023-06-22T14:43:31;9.40;;;5.13;;
43048;SDS011;28673;44.412;11.918;2023-06-22T14:45:57;12.68;;;5.03;;
43048;SDS011;28673;44.412;11.918;2023-06-22T14:48:23;12.57;;;4.95;;
43048;SDS011;28673;44.412;11.918;2023-06-22T14:50:49;8.50;;;5.15;;
43048;SDS011;28673;44.412;11.918;2023-06-22T14:53:15;9.90;;;5.00;;
43048;SDS011;28673;44.412;11.918;2023-06-22T14:55:41;8.20;;;4.57;;
43048;SDS011;28673;44.412;11.918;2023-06-22T14:58:07;7.97;;;5.15;;
43048;SDS011;28673;44.412;11.918;2023-06-22T15:00:32;13.02;;;4.75;;
43048;SDS011;28673;44.412;11.918;2023-06-22T15:02:58;9.65;;;4.45;;
43048;SDS011;28673;44.412;11.918;2023-06-22T15:05:24;9.52;;;4.57;;
43048;SDS011;28673;44.412;11.918;2023-06-22T15:07:50;10.40;;;5.65;;